createdAt,value
2023-02-28T00:01:34.848Z,102560.16
2023-02-28T00:04:02.412Z,102551.59
2023-02-28T00:06:29.633Z,102558.59
2023-02-28T00:08:56.820Z,102556.09
2023-02-28T00:11:24.016Z,102563.50
2023-02-28T00:13:51.266Z,102558.41
2023-02-28T00:16:21.655Z,102562.81
2023-02-28T00:18:49.626Z,102561.22
2023-02-28T00:21:17.472Z,102558.59
2023-02-28T00:23:44.865Z,102556.13
2023-02-28T00:26:12.120Z,102553.59
2023-02-28T00:28:39.322Z,102554.47
2023-02-28T00:31:06.626Z,102548.41
2023-02-28T00:33:33.848Z,102551.78
2023-02-28T00:36:06.131Z,102555.34
2023-02-28T00:38:33.531Z,102548.31
2023-02-28T00:41:05.362Z,102551.91
2023-02-28T00:43:38.288Z,102552.94
2023-02-28T00:46:06.074Z,102563.31
2023-02-28T00:48:33.636Z,102560.41
2023-02-28T00:51:00.840Z,102570.94
2023-02-28T00:53:28.158Z,102567.66
2023-02-28T00:55:55.335Z,102563.38
2023-02-28T00:58:22.644Z,102559.97
2023-02-28T01:00:50.089Z,102565.19
2023-02-28T01:03:21.862Z,102558.38
2023-02-28T01:05:49.030Z,102560.09
2023-02-28T01:08:16.703Z,102565.25
2023-02-28T01:10:44.364Z,102565.25
2023-02-28T01:13:12.356Z,102563.44
2023-02-28T01:15:42.538Z,102563.38
2023-02-28T01:18:09.748Z,102563.38
2023-02-28T01:20:38.987Z,102562.47
2023-02-28T01:23:06.181Z,102555.44
2023-02-28T01:25:36.443Z,102556.03
2023-02-28T01:28:03.748Z,102557.72
2023-02-28T01:30:31.302Z,102553.94
2023-02-28T01:32:58.515Z,102556.28
2023-02-28T01:35:25.669Z,102548.50
2023-02-28T01:37:52.856Z,102549.34
2023-02-28T01:40:20.082Z,102539.91
2023-02-28T01:42:47.292Z,102549.44
2023-02-28T01:45:31.294Z,102540.09
2023-02-28T01:48:08.924Z,102541.88
2023-02-28T01:50:42.515Z,102541.94
2023-02-28T01:53:14.191Z,102542.84
2023-02-28T01:55:42.476Z,102548.06
2023-02-28T01:58:10.172Z,102541.19
2023-02-28T02:00:39.044Z,102541.22
2023-02-28T02:03:10.039Z,102535.16
2023-02-28T02:05:39.385Z,102537.78
2023-02-28T02:08:12.493Z,102554.19
2023-02-28T02:10:55.427Z,102559.38
2023-02-28T02:13:44.779Z,102549.78
2023-02-28T02:16:30.828Z,102550.63
2023-02-28T02:19:29.922Z,102546.19
2023-02-28T02:22:16.080Z,102546.06
2023-02-28T02:25:20.745Z,102540.88
2023-02-28T02:28:06.015Z,102546.78
2023-02-28T02:30:52.273Z,102546.34
2023-02-28T02:33:40.599Z,102548.00
2023-02-28T02:36:22.697Z,102540.94
2023-02-28T02:39:02.748Z,102541.56
2023-02-28T02:41:58.351Z,102544.06
2023-02-28T02:44:48.820Z,102537.00
2023-02-28T02:47:19.052Z,102541.13
2023-02-28T02:49:52.806Z,102546.19
2023-02-28T02:52:23.384Z,102544.25
2023-02-28T02:54:56.358Z,102543.31
2023-02-28T02:57:33.305Z,102549.34
2023-02-28T03:00:01.677Z,102537.03
2023-02-28T03:02:35.151Z,102544.59
2023-02-28T03:05:10.047Z,102540.91
2023-02-28T03:07:37.234Z,102538.06
2023-02-28T03:10:24.479Z,102538.59
2023-02-28T03:13:00.812Z,102553.88
2023-02-28T03:15:55.526Z,102551.00
2023-02-28T03:18:50.503Z,102542.78
2023-02-28T03:21:31.698Z,102552.91
2023-02-28T03:24:17.190Z,102544.81
2023-02-28T03:26:46.508Z,102548.66
2023-02-28T03:29:17.907Z,102546.91
2023-02-28T03:31:53.353Z,102554.28
2023-02-28T03:34:32.437Z,102556.53
2023-02-28T03:37:03.341Z,102559.84
2023-02-28T03:39:40.557Z,102557.75
2023-02-28T03:42:12.271Z,102562.88
2023-02-28T03:44:53.125Z,102562.75
2023-02-28T03:47:28.708Z,102559.88
2023-02-28T03:50:06.173Z,102560.50
2023-02-28T03:52:37.630Z,102566.25
2023-02-28T03:55:10.251Z,102566.13
2023-02-28T03:58:09.176Z,102566.66
2023-02-28T04:00:39.389Z,102568.13
2023-02-28T04:03:07.046Z,102572.38
2023-02-28T04:05:34.396Z,102567.13
2023-02-28T04:08:06.218Z,102570.41
2023-02-28T04:10:33.474Z,102571.75
2023-02-28T04:13:00.668Z,102568.25
2023-02-28T04:15:28.333Z,102568.13
2023-02-28T04:17:55.581Z,102569.00
2023-02-28T04:20:22.775Z,102571.44
2023-02-28T04:22:49.987Z,102571.44
2023-02-28T04:25:17.202Z,102566.91
2023-02-28T04:27:45.500Z,102571.94
2023-02-28T04:30:13.529Z,102566.84
2023-02-28T04:32:40.821Z,102573.44
2023-02-28T04:35:09.912Z,102571.53
2023-02-28T04:37:38.042Z,102578.41
2023-02-28T04:40:08.585Z,102578.34
2023-02-28T04:42:36.804Z,102579.22
2023-02-28T04:45:05.269Z,102579.97
2023-02-28T04:47:32.475Z,102577.84
2023-02-28T04:49:59.679Z,102584.53
2023-02-28T04:52:28.201Z,102588.81
2023-02-28T04:54:55.498Z,102587.59
2023-02-28T04:57:22.697Z,102584.03
2023-02-28T04:59:49.871Z,102590.84
2023-02-28T05:02:17.192Z,102590.03
2023-02-28T05:04:44.468Z,102596.03
2023-02-28T05:07:11.653Z,102595.13
2023-02-28T05:09:38.871Z,102586.75
2023-02-28T05:12:06.130Z,102596.44
2023-02-28T05:14:33.394Z,102599.00
2023-02-28T05:17:00.585Z,102593.69
2023-02-28T05:19:27.792Z,102597.63
2023-02-28T05:21:56.057Z,102594.59
2023-02-28T05:24:25.963Z,102600.59
2023-02-28T05:26:54.632Z,102602.19
2023-02-28T05:29:22.468Z,102595.16
2023-02-28T05:31:49.827Z,102604.78
2023-02-28T05:34:17.190Z,102607.38
2023-02-28T05:36:44.784Z,102604.34
2023-02-28T05:39:13.740Z,102608.72
2023-02-28T05:41:42.578Z,102612.03
2023-02-28T05:44:09.944Z,102613.66
2023-02-28T05:46:37.251Z,102615.34
2023-02-28T05:49:05.116Z,102609.50
2023-02-28T05:51:32.780Z,102611.94
2023-02-28T05:54:02.167Z,102606.69
2023-02-28T05:56:29.463Z,102617.94
2023-02-28T05:58:56.898Z,102619.28
2023-02-28T06:01:42.562Z,102616.91
2023-02-28T06:04:22.294Z,102619.47
2023-02-28T06:06:58.429Z,102627.06
2023-02-28T06:09:26.055Z,102632.53
2023-02-28T06:11:53.286Z,102622.16
2023-02-28T06:14:21.589Z,102632.53
2023-02-28T06:16:49.097Z,102629.06
2023-02-28T06:19:16.507Z,102624.59
2023-02-28T06:21:44.118Z,102632.53
2023-02-28T06:24:11.736Z,102628.34
2023-02-28T06:26:38.929Z,102636.28
2023-02-28T06:29:06.198Z,102639.59
2023-02-28T06:31:33.860Z,102641.28
2023-02-28T06:34:01.325Z,102646.53
2023-02-28T06:36:29.809Z,102647.63
2023-02-28T06:38:57.247Z,102648.66
2023-02-28T06:41:26.605Z,102657.41
2023-02-28T06:43:53.860Z,102654.19
2023-02-28T06:46:21.507Z,102655.75
2023-02-28T06:48:48.796Z,102656.03
2023-02-28T06:51:19.013Z,102662.28
2023-02-28T06:53:46.614Z,102664.13
2023-02-28T06:56:15.700Z,102667.00
2023-02-28T06:58:43.145Z,102666.25
2023-02-28T07:01:10.671Z,102665.34
2023-02-28T07:03:37.952Z,102668.34
2023-02-28T07:06:06.751Z,102665.19
2023-02-28T07:08:34.732Z,102672.25
2023-02-28T07:11:01.962Z,102686.00
2023-02-28T07:13:29.204Z,102682.34
2023-02-28T07:15:56.340Z,102674.47
2023-02-28T07:18:23.804Z,102671.72
2023-02-28T07:20:51.264Z,102677.66
2023-02-28T07:23:18.845Z,102673.91
2023-02-28T07:25:46.650Z,102680.59
2023-02-28T07:28:14.782Z,102676.00
2023-02-28T07:30:42.528Z,102675.69
2023-02-28T07:33:10.190Z,102673.63
2023-02-28T07:35:37.481Z,102669.06
2023-02-28T07:38:05.616Z,102671.25
2023-02-28T07:40:32.900Z,102664.13
2023-02-28T07:43:01.569Z,102673.34
2023-02-28T07:45:29.816Z,102668.66
2023-02-28T07:47:57.583Z,102676.91
2023-02-28T07:50:27.047Z,102676.13
2023-02-28T07:52:54.362Z,102666.16
2023-02-28T07:55:21.578Z,102677.56
2023-02-28T07:57:48.746Z,102673.75
2023-02-28T08:00:16.150Z,102669.00
2023-02-28T08:02:43.536Z,102680.69
2023-02-28T08:05:11.048Z,102671.50
2023-02-28T08:07:38.290Z,102669.00
2023-02-28T08:10:06.670Z,102679.56
2023-02-28T08:12:34.054Z,102676.25
2023-02-28T08:15:01.275Z,102680.09
2023-02-28T08:17:28.487Z,102676.19
2023-02-28T08:19:55.732Z,102679.88
2023-02-28T08:22:23.233Z,102679.66
2023-02-28T08:24:50.483Z,102675.75
2023-02-28T08:27:18.315Z,102674.13
2023-02-28T08:29:45.600Z,102684.81
2023-02-28T08:32:28.587Z,102672.28
2023-02-28T08:34:56.943Z,102680.41
2023-02-28T08:37:24.378Z,102689.19
2023-02-28T08:39:53.987Z,102683.91
2023-02-28T08:42:22.909Z,102686.84
2023-02-28T08:44:50.117Z,102686.44
2023-02-28T08:47:17.394Z,102678.22
2023-02-28T08:49:44.601Z,102682.91
2023-02-28T08:52:11.842Z,102683.84
2023-02-28T08:54:39.083Z,102684.94
2023-02-28T08:57:06.302Z,102679.63
2023-02-28T08:59:33.984Z,102683.50
2023-02-28T09:02:01.193Z,102675.25
2023-02-28T09:04:31.622Z,102679.13
2023-02-28T09:06:59.814Z,102677.63
2023-02-28T09:09:27.092Z,102674.50
2023-02-28T09:11:56.133Z,102682.78
2023-02-28T09:14:23.392Z,102677.63
2023-02-28T09:16:50.658Z,102680.97
2023-02-28T09:19:17.922Z,102686.34
2023-02-28T09:21:45.140Z,102679.25
2023-02-28T09:24:15.184Z,102684.69
2023-02-28T09:26:43.121Z,102679.53
2023-02-28T09:29:18.780Z,102678.88
2023-02-28T09:31:46.266Z,102678.81
2023-02-28T09:34:13.847Z,102677.03
2023-02-28T09:36:45.538Z,102682.19
2023-02-28T09:39:16.352Z,102679.81
2023-02-28T09:41:51.055Z,102680.63
2023-02-28T09:44:24.477Z,102675.63
2023-02-28T09:46:57.546Z,102677.94
2023-02-28T09:49:29.952Z,102684.53
2023-02-28T09:52:01.235Z,102679.44
2023-02-28T09:54:31.109Z,102681.88
2023-02-28T09:57:00.506Z,102683.31
2023-02-28T09:59:37.735Z,102685.13
2023-02-28T10:02:39.703Z,102689.91
2023-02-28T10:05:10.102Z,102686.47
2023-02-28T10:07:44.810Z,102675.16
2023-02-28T10:10:42.509Z,102682.41
2023-02-28T10:13:58.956Z,102682.41
2023-02-28T10:16:36.128Z,102680.03
2023-02-28T10:19:15.707Z,102675.13
2023-02-28T10:21:56.697Z,102672.94
2023-02-28T10:24:31.833Z,102669.72
2023-02-28T10:27:15.477Z,102663.56
2023-02-28T10:29:45.524Z,102676.47
2023-02-28T10:32:18.952Z,102675.25
2023-02-28T10:34:51.156Z,102671.94
2023-02-28T10:37:18.409Z,102678.06
2023-02-28T10:39:47.361Z,102678.56
2023-02-28T10:42:27.281Z,102673.84
2023-02-28T10:45:24.702Z,102676.56
2023-02-28T10:47:57.845Z,102675.69
2023-02-28T10:50:33.591Z,102672.16
2023-02-28T10:53:36.185Z,102668.47
2023-02-28T10:56:41.842Z,102666.16
2023-02-28T10:59:31.626Z,102661.00
2023-02-28T11:01:59.062Z,102664.09
2023-02-28T11:04:36.905Z,102664.16
2023-02-28T11:07:18.458Z,102662.13
2023-02-28T11:09:50.257Z,102670.34
2023-02-28T11:12:27.462Z,102656.66
2023-02-28T11:14:58.118Z,102661.25
2023-02-28T11:17:28.922Z,102646.88
2023-02-28T11:20:04.271Z,102636.28
2023-02-28T11:22:39.204Z,102639.63
2023-02-28T11:25:15.245Z,102643.13
2023-02-28T11:27:53.653Z,102641.91
2023-02-28T11:30:38.917Z,102632.88
2023-02-28T11:33:27.871Z,102629.25
2023-02-28T11:36:04.226Z,102623.25
2023-02-28T11:38:33.933Z,102626.19
2023-02-28T11:41:19.769Z,102616.09
2023-02-28T11:44:05.526Z,102615.94
2023-02-28T11:46:46.193Z,102612.13
2023-02-28T11:49:25.494Z,102609.44
2023-02-28T11:51:58.331Z,102607.16
2023-02-28T11:54:34.022Z,102611.28
2023-02-28T11:57:21.881Z,102605.81
2023-02-28T12:00:06.302Z,102604.75
2023-02-28T12:02:49.908Z,102607.47
2023-02-28T12:05:37.612Z,102618.19
2023-02-28T12:08:32.824Z,102607.69
2023-02-28T12:11:34.367Z,102612.78
2023-02-28T12:14:40.751Z,102614.38
2023-02-28T12:17:26.004Z,102619.53
2023-02-28T12:20:06.434Z,102612.94
2023-02-28T12:22:42.335Z,102606.03
2023-02-28T12:25:30.654Z,102607.75
2023-02-28T12:27:57.907Z,102603.31
2023-02-28T12:30:35.013Z,102605.44
2023-02-28T12:33:12.295Z,102603.72
2023-02-28T12:35:59.934Z,102604.53
2023-02-28T12:38:42.691Z,102605.25
2023-02-28T12:41:31.164Z,102596.41
2023-02-28T12:44:22.819Z,102593.63
2023-02-28T12:46:55.881Z,102590.25
2023-02-28T12:49:40.444Z,102583.41
2023-02-28T12:52:15.344Z,102577.97
2023-02-28T12:54:59.053Z,102572.75
2023-02-28T12:57:59.965Z,102559.00
2023-02-28T13:00:38.314Z,102566.69
2023-02-28T13:03:16.136Z,102560.66
2023-02-28T13:05:57.616Z,102568.44
2023-02-28T13:08:46.401Z,102550.81
2023-02-28T13:11:48.120Z,102543.66
2023-02-28T13:14:36.959Z,102541.88
2023-02-28T13:17:13.677Z,102542.63
2023-02-28T13:20:05.583Z,102541.19
2023-02-28T13:22:53.813Z,102535.72
2023-02-28T13:25:24.244Z,102525.38
2023-02-28T13:28:02.076Z,102540.06
2023-02-28T13:30:59.560Z,102528.81
2023-02-28T13:33:34.538Z,102522.72
2023-02-28T13:36:20.093Z,102520.78
2023-02-28T13:38:56.428Z,102530.75
2023-02-28T13:41:32.999Z,102529.78
2023-02-28T13:44:11.814Z,102531.25
2023-02-28T13:46:58.980Z,102522.34
2023-02-28T13:49:26.702Z,102521.38
2023-02-28T13:52:07.389Z,102518.59
2023-02-28T13:54:59.442Z,102515.81
2023-02-28T13:57:46.926Z,102517.56
2023-02-28T14:00:35.366Z,102512.31
2023-02-28T14:03:24.369Z,102504.47
2023-02-28T14:06:47.331Z,102503.81
2023-02-28T14:09:27.547Z,102510.00
2023-02-28T14:11:55.208Z,102503.88
2023-02-28T14:14:37.687Z,102506.41
2023-02-28T14:17:06.377Z,102509.75
2023-02-28T14:19:37.540Z,102509.69
2023-02-28T14:22:48.213Z,102510.72
2023-02-28T14:25:41.363Z,102506.38
2023-02-28T14:28:11.792Z,102510.78
2023-02-28T14:31:08.697Z,102509.03
2023-02-28T14:33:58.878Z,102502.13
2023-02-28T14:36:37.667Z,102504.69
2023-02-28T14:39:16.324Z,102498.50
2023-02-28T14:41:44.977Z,102497.44
2023-02-28T14:44:21.977Z,102493.50
2023-02-28T14:46:56.099Z,102505.91
2023-02-28T14:49:42.681Z,102497.34
2023-02-28T14:52:13.269Z,102496.41
2023-02-28T14:54:41.371Z,102495.44
2023-02-28T14:57:29.357Z,102497.94
2023-02-28T15:00:16.980Z,102498.72
2023-02-28T15:02:44.983Z,102488.31
2023-02-28T15:05:47.232Z,102494.28
2023-02-28T15:08:17.017Z,102488.06
2023-02-28T15:11:02.244Z,102488.28
2023-02-28T15:13:58.490Z,102487.34
2023-02-28T15:16:39.846Z,102489.19
2023-02-28T15:19:20.199Z,102481.41
2023-02-28T15:21:50.184Z,102488.44
2023-02-28T15:24:37.728Z,102490.22
2023-02-28T15:27:08.637Z,102486.56
2023-02-28T15:29:50.199Z,102484.84
2023-02-28T15:32:32.710Z,102479.56
2023-02-28T15:35:18.050Z,102479.56
2023-02-28T15:37:53.783Z,102474.34
2023-02-28T15:40:29.127Z,102472.63
2023-02-28T15:43:16.406Z,102475.06
2023-02-28T15:45:48.118Z,102472.50
2023-02-28T15:48:24.725Z,102478.38
2023-02-28T15:51:17.644Z,102474.03
2023-02-28T15:54:01.299Z,102480.06
2023-02-28T15:56:33.726Z,102476.63
2023-02-28T15:59:08.845Z,102476.56
2023-02-28T16:01:37.605Z,102476.41
2023-02-28T16:04:08.058Z,102476.47
2023-02-28T16:06:38.064Z,102484.34
2023-02-28T16:09:08.898Z,102487.66
2023-02-28T16:11:39.968Z,102484.88
2023-02-28T16:14:07.337Z,102493.34
2023-02-28T16:16:34.936Z,102490.66
2023-02-28T16:19:02.157Z,102486.19
2023-02-28T16:21:29.594Z,102488.59
2023-02-28T16:23:56.948Z,102491.22
2023-02-28T16:26:25.966Z,102495.50
2023-02-28T16:28:53.398Z,102492.84
2023-02-28T16:31:20.912Z,102491.81
2023-02-28T16:33:48.137Z,102494.25
2023-02-28T16:36:21.135Z,102488.88
2023-02-28T16:38:48.501Z,102481.00
2023-02-28T16:41:19.894Z,102488.81
2023-02-28T16:43:49.760Z,102496.38
2023-02-28T16:46:17.848Z,102492.75
2023-02-28T16:48:46.271Z,102496.09
2023-02-28T16:51:14.788Z,102488.06
2023-02-28T16:53:42.056Z,102487.19
2023-02-28T16:56:25.310Z,102490.50
2023-02-28T16:58:58.876Z,102489.50
2023-02-28T17:01:28.302Z,102492.81
2023-02-28T17:03:56.048Z,102497.78
2023-02-28T17:06:29.708Z,102488.03
2023-02-28T17:08:57.965Z,102490.31
2023-02-28T17:11:25.397Z,102503.09
2023-02-28T17:13:54.488Z,102499.44
2023-02-28T17:16:31.740Z,102503.53
2023-02-28T17:19:05.355Z,102500.78
2023-02-28T17:21:34.034Z,102503.19
2023-02-28T17:24:01.642Z,102500.44
2023-02-28T17:26:29.355Z,102509.78
2023-02-28T17:28:58.029Z,102511.38
2023-02-28T17:31:26.555Z,102509.44
2023-02-28T17:33:55.526Z,102514.53
2023-02-28T17:36:28.704Z,102513.41
2023-02-28T17:38:56.732Z,102514.13
2023-02-28T17:41:23.979Z,102519.97
2023-02-28T17:43:51.846Z,102513.81
2023-02-28T17:46:21.820Z,102521.44
2023-02-28T17:48:49.737Z,102515.22
2023-02-28T17:51:17.550Z,102514.16
2023-02-28T17:53:45.117Z,102514.22
2023-02-28T17:56:17.810Z,102522.78
2023-02-28T17:58:45.320Z,102524.00
2023-02-28T18:01:13.000Z,102518.09
2023-02-28T18:03:40.867Z,102519.78
2023-02-28T18:06:10.964Z,102515.22
2023-02-28T18:08:38.395Z,102519.34
2023-02-28T18:11:05.758Z,102526.81
2023-02-28T18:13:33.416Z,102522.47
2023-02-28T18:16:00.800Z,102523.13
2023-02-28T18:18:28.675Z,102519.63
2023-02-28T18:20:55.899Z,102522.94
2023-02-28T18:23:23.100Z,102527.06
2023-02-28T18:25:50.448Z,102522.56
2023-02-28T18:28:17.720Z,102521.44
2023-02-28T18:30:45.008Z,102519.53
2023-02-28T18:33:12.283Z,102518.56
2023-02-28T18:35:39.917Z,102526.25
2023-02-28T18:38:15.102Z,102537.44
2023-02-28T18:40:43.286Z,102540.41
2023-02-28T18:43:10.503Z,102531.81
2023-02-28T18:45:40.780Z,102535.16
2023-02-28T18:48:08.135Z,102535.06
2023-02-28T18:50:38.645Z,102534.03
2023-02-28T18:53:05.915Z,102536.38
2023-02-28T18:55:34.076Z,102543.09
2023-02-28T18:58:01.417Z,102544.56
2023-02-28T19:00:28.686Z,102540.22
2023-02-28T19:02:55.967Z,102540.03
2023-02-28T19:05:23.374Z,102552.31
2023-02-28T19:07:50.865Z,102550.00
2023-02-28T19:10:18.451Z,102546.75
2023-02-28T19:12:45.782Z,102544.00
2023-02-28T19:15:13.429Z,102544.13
2023-02-28T19:17:40.980Z,102532.69
2023-02-28T19:20:09.566Z,102541.44
2023-02-28T19:22:37.137Z,102537.84
2023-02-28T19:25:07.856Z,102539.41
2023-02-28T19:27:35.306Z,102540.97
2023-02-28T19:30:02.960Z,102543.59
2023-02-28T19:32:30.242Z,102531.44
2023-02-28T19:34:57.489Z,102541.72
2023-02-28T19:37:24.716Z,102549.34
2023-02-28T19:39:54.468Z,102549.25
2023-02-28T19:42:21.676Z,102555.19
2023-02-28T19:44:48.979Z,102554.19
2023-02-28T19:47:16.387Z,102561.84
2023-02-28T19:49:43.665Z,102568.56
2023-02-28T19:52:13.601Z,102562.41
2023-02-28T19:54:42.995Z,102560.56
2023-02-28T19:57:10.172Z,102553.47
2023-02-28T19:59:39.635Z,102559.44
2023-02-28T20:02:15.287Z,102554.28
2023-02-28T20:04:49.606Z,102556.63
2023-02-28T20:07:20.142Z,102553.84
2023-02-28T20:09:48.116Z,102562.38
2023-02-28T20:12:24.189Z,102559.72
2023-02-28T20:14:52.030Z,102558.72
2023-02-28T20:17:19.286Z,102556.00
2023-02-28T20:19:46.666Z,102553.03
2023-02-28T20:22:13.975Z,102546.13
2023-02-28T20:24:41.577Z,102558.19
2023-02-28T20:27:08.802Z,102553.75
2023-02-28T20:29:36.471Z,102549.34
2023-02-28T20:32:03.735Z,102556.00
2023-02-28T20:34:30.987Z,102561.88
2023-02-28T20:36:58.724Z,102560.13
2023-02-28T20:39:26.060Z,102552.94
2023-02-28T20:41:53.267Z,102556.34
2023-02-28T20:44:20.610Z,102545.75
2023-02-28T20:46:47.828Z,102552.75
2023-02-28T20:49:15.762Z,102544.88
2023-02-28T20:51:42.994Z,102547.53
2023-02-28T20:54:11.937Z,102539.66
2023-02-28T20:56:39.423Z,102537.97
2023-02-28T20:59:07.673Z,102539.69
2023-02-28T21:01:35.178Z,102546.44
2023-02-28T21:04:06.126Z,102538.50
2023-02-28T21:06:35.950Z,102531.44
2023-02-28T21:09:05.475Z,102537.56
2023-02-28T21:11:34.297Z,102524.59
2023-02-28T21:14:03.496Z,102527.03
2023-02-28T21:16:31.005Z,102531.44
2023-02-28T21:19:04.103Z,102529.50
2023-02-28T21:21:45.262Z,102519.97
2023-02-28T21:24:16.848Z,102528.16
2023-02-28T21:26:45.534Z,102532.31
2023-02-28T21:29:13.533Z,102526.38
2023-02-28T21:31:40.849Z,102522.97
2023-02-28T21:34:08.619Z,102525.16
2023-02-28T21:36:39.514Z,102528.59
2023-02-28T21:39:11.600Z,102535.75
2023-02-28T21:41:38.870Z,102531.66
2023-02-28T21:44:06.143Z,102534.75
2023-02-28T21:46:33.874Z,102528.94
2023-02-28T21:49:01.285Z,102531.00
2023-02-28T21:51:31.121Z,102536.22
2023-02-28T21:53:59.468Z,102536.66
2023-02-28T21:56:30.125Z,102546.00
2023-02-28T21:59:00.449Z,102540.72
2023-02-28T22:01:36.455Z,102536.56
2023-02-28T22:04:06.272Z,102541.66
2023-02-28T22:06:36.282Z,102545.59
2023-02-28T22:09:06.869Z,102545.00
2023-02-28T22:11:35.244Z,102545.00
2023-02-28T22:14:02.523Z,102554.31
2023-02-28T22:16:33.159Z,102561.03
2023-02-28T22:19:04.962Z,102558.03
2023-02-28T22:21:32.230Z,102558.16
2023-02-28T22:23:59.603Z,102560.94
2023-02-28T22:26:26.813Z,102554.84
2023-02-28T22:28:54.015Z,102560.81
2023-02-28T22:31:30.135Z,102560.75
2023-02-28T22:34:00.635Z,102556.03
2023-02-28T22:36:28.756Z,102547.22
2023-02-28T22:38:56.995Z,102554.44
2023-02-28T22:41:24.697Z,102554.28
2023-02-28T22:43:56.706Z,102561.88
2023-02-28T22:46:25.204Z,102559.16
2023-02-28T22:48:52.425Z,102567.03
2023-02-28T22:51:22.115Z,102565.88
2023-02-28T22:53:50.655Z,102566.28
2023-02-28T22:56:19.499Z,102563.59
2023-02-28T22:58:51.765Z,102566.34
2023-02-28T23:01:20.708Z,102567.84
2023-02-28T23:03:48.190Z,102565.13
2023-02-28T23:06:31.583Z,102568.47
2023-02-28T23:09:01.961Z,102569.44
2023-02-28T23:11:35.605Z,102572.69
2023-02-28T23:14:03.576Z,102570.78
2023-02-28T23:16:40.104Z,102575.19
2023-02-28T23:19:14.608Z,102584.50
2023-02-28T23:21:43.152Z,102584.34
2023-02-28T23:24:11.339Z,102584.94
2023-02-28T23:26:41.593Z,102585.69
2023-02-28T23:29:09.116Z,102590.31
2023-02-28T23:31:36.841Z,102595.53
2023-02-28T23:34:04.133Z,102597.41
2023-02-28T23:36:32.131Z,102597.66
2023-02-28T23:38:59.674Z,102607.78
2023-02-28T23:41:27.227Z,102601.75
2023-02-28T23:43:54.748Z,102600.03
2023-02-28T23:46:22.442Z,102595.41
2023-02-28T23:48:49.690Z,102594.28
2023-02-28T23:51:19.697Z,102602.16
2023-02-28T23:53:49.878Z,102585.63
2023-02-28T23:56:20.911Z,102583.63
2023-02-28T23:58:48.799Z,102587.88
